Terminal Aerodrome Forecast
Issued by NWS Shreveport, LA

Home | Current Version | Previous Version | Text Only | Print | Product List | Glossary On
Versions: 1 2 3 4 5 6 7 8 9 10 11 12 13 14 15 16
000
FTUS44 KSHV 171700
TAFSHV
TAF
KSHV 171720Z 1718/1818 09006KT P6SM OVC090
     FM180000 09006KT P6SM VCSH OVC060
     FM180600 08006KT P6SM -SHRA OVC045
      TEMPO 1808/1812 5SM -SHRA BR OVC030
     FM181200 09006KT 5SM -RA BR BKN009=

USA.gov is the U.S. government's official web portal to all federal, state and local government web resources and services.